Time;durP1;ratioP1;P1;durP2;ratioP2;P2;SDS_P1;SDS_P2;PMS_P1;PMS_P2;Temp;Humidity;BMP_temperature;BMP_pressure;BME280_temperature;BME280_humidity;BME280_pressure;Samples;Min_cycle;Max_cycle;Signal;HPM_P1;HPM_P2
2021/12/20 00:01:24;;;;;;;10.73;1.83;;;;;;;6.91;100.00;102980.34;5111144;28;20063;-37
2021/12/20 00:03:52;;;;;;;14.45;2.47;;;;;;;6.93;100.00;102990.38;5110762;28;20044;-38
2021/12/20 00:06:20;;;;;;;12.52;1.98;;;;;;;6.93;100.00;102985.69;5110098;28;20051;-34
2021/12/20 00:08:49;;;;;;;13.32;1.88;;;;;;;6.94;100.00;102990.16;5111103;28;20054;-36
2021/12/20 00:11:16;;;;;;;10.10;1.70;;;;;;;6.93;100.00;102988.47;5111159;28;20213;-33
2021/12/20 00:13:44;;;;;;;11.80;2.03;;;;;;;6.93;100.00;102988.47;5110101;28;20040;-34
2021/12/20 00:16:12;;;;;;;13.10;1.95;;;;;;;6.93;100.00;102991.25;5111101;28;20420;-34
2021/12/20 00:18:42;;;;;;;16.27;2.13;;;;;;;6.90;100.00;102984.19;5111718;28;20040;-35
2021/12/20 00:21:09;;;;;;;15.82;2.38;;;;;;;6.89;100.00;102984.44;5114112;28;20131;-37
2021/12/20 00:23:37;;;;;;;12.00;2.13;;;;;;;6.87;100.00;102979.09;5114277;28;20031;-33
2021/12/20 00:26:08;;;;;;;14.48;2.35;;;;;;;6.85;100.00;102975.69;5114723;28;20044;-37
2021/12/20 00:28:36;;;;;;;17.13;2.25;;;;;;;6.84;100.00;102973.97;5113548;28;20407;-34
2021/12/20 00:31:04;;;;;;;13.05;2.10;;;;;;;6.82;100.00;102972.50;5114496;28;20040;-35
2021/12/20 00:33:33;;;;;;;10.00;1.63;;;;;;;6.82;100.00;102978.91;5113140;28;20046;-36
2021/12/20 00:36:01;;;;;;;13.48;2.17;;;;;;;6.81;100.00;102973.56;5114529;28;20050;-39
2021/12/20 00:41:16;;;;;;;13.38;1.83;;;;;;;6.79;100.00;102975.75;5113666;28;20102;-34
2021/12/20 00:43:44;;;;;;;11.27;1.40;;;;;;;6.78;100.00;102972.13;5113887;28;20050;-31
2021/12/20 00:46:11;;;;;;;16.58;2.17;;;;;;;6.79;100.00;102970.19;5114285;28;20374;-40
2021/12/20 00:48:39;;;;;;;14.18;1.50;;;;;;;6.78;100.00;102968.50;5113014;28;20065;-42
2021/12/20 00:51:07;;;;;;;14.38;2.05;;;;;;;6.77;100.00;102970.41;5113977;28;20031;-40
2021/12/20 00:53:35;;;;;;;12.50;1.98;;;;;;;6.77;100.00;102980.66;5113736;28;20048;-39
2021/12/20 00:56:03;;;;;;;16.88;2.08;;;;;;;6.79;100.00;102978.53;5113005;28;20048;-40
2021/12/20 00:58:32;;;;;;;10.88;1.92;;;;;;;6.77;100.00;102975.97;5113888;27;20043;-37
2021/12/20 01:01:00;;;;;;;12.65;1.92;;;;;;;6.78;100.00;102968.50;5113595;28;20047;-31
2021/12/20 01:03:30;;;;;;;8.25;1.65;;;;;;;6.78;100.00;102960.16;5112816;28;20484;-33
2021/12/20 01:05:58;;;;;;;9.30;1.52;;;;;;;6.77;100.00;102956.53;5113699;28;20074;-35
2021/12/20 01:08:29;;;;;;;9.90;1.73;;;;;;;6.77;100.00;102964.03;5113604;28;20054;-32
2021/12/20 01:10:56;;;;;;;11.00;1.67;;;;;;;6.77;100.00;102970.41;5112913;28;20043;-28
2021/12/20 01:13:28;;;;;;;9.63;1.40;;;;;;;6.78;100.00;102971.28;5113798;28;20541;-35
2021/12/20 01:16:00;;;;;;;10.18;1.85;;;;;;;6.75;100.00;102967.00;5112765;28;20061;-33
2021/12/20 01:18:28;;;;;;;7.90;1.33;;;;;;;6.74;100.00;102970.00;5113850;28;20058;-35
2021/12/20 01:20:56;;;;;;;9.85;1.60;;;;;;;6.75;100.00;102967.00;5113085;28;20044;-28
2021/12/20 01:23:24;;;;;;;9.23;1.73;;;;;;;6.74;100.00;102961.69;5113024;28;20108;-34
2021/12/20 01:25:52;;;;;;;12.35;2.10;;;;;;;6.75;100.00;102957.84;5113022;28;20048;-33
2021/12/20 01:28:19;;;;;;;12.15;2.30;;;;;;;6.74;100.00;102954.22;5113385;28;20066;-33
2021/12/20 01:30:47;;;;;;;15.18;2.53;;;;;;;6.72;100.00;102964.69;5111847;28;20043;-38
2021/12/20 01:33:16;;;;;;;10.50;1.88;;;;;;;6.74;100.00;102961.69;5113374;28;20036;-41
2021/12/20 01:35:44;;;;;;;8.65;1.65;;;;;;;6.74;100.00;102958.91;5112808;28;20046;-34
2021/12/20 01:38:12;;;;;;;7.88;1.30;;;;;;;6.76;100.00;102965.09;5101260;28;20480;-36
2021/12/20 01:40:40;;;;;;;19.67;3.20;;;;;;;6.77;100.00;102964.03;5112683;28;20054;-36
2021/12/20 01:43:11;;;;;;;13.85;2.72;;;;;;;6.75;100.00;102955.06;5112958;28;20127;-39
2021/12/20 01:45:39;;;;;;;11.60;1.75;;;;;;;6.74;100.00;102951.44;5112452;28;20096;-34
2021/12/20 01:48:10;;;;;;;10.15;1.95;;;;;;;6.75;100.00;102955.91;5112852;28;20047;-30
2021/12/20 01:53:25;;;;;;;8.40;1.35;;;;;;;6.74;100.00;102961.69;5105493;28;20502;-35
2021/12/20 01:55:55;;;;;;;5.50;1.50;;;;;;;6.75;100.00;102955.91;5112769;28;20040;-39
2021/12/20 01:58:24;;;;;;;6.60;1.63;;;;;;;6.77;100.00;102955.69;5112027;28;20047;-36
2021/12/20 02:03:43;;;;;;;10.63;1.40;;;;;;;6.74;100.00;102957.00;5112430;28;20127;-34
2021/12/20 02:06:21;;;;;;;13.88;1.85;;;;;;;6.74;100.00;102959.75;5111617;28;20051;-35
2021/12/20 02:08:49;;;;;;;8.13;1.35;;;;;;;6.73;100.00;102955.28;5109407;28;20040;-35
2021/12/20 02:11:20;;;;;;;7.53;1.40;;;;;;;6.74;100.00;102957.00;5112295;28;20093;-39
2021/12/20 02:13:49;;;;;;;7.20;1.35;;;;;;;6.74;100.00;102950.59;5101524;28;20133;-30
2021/12/20 02:16:17;;;;;;;9.13;2.20;;;;;;;6.74;100.00;102950.59;5099539;28;20408;-31
2021/12/20 02:18:45;;;;;;;13.25;2.15;;;;;;;6.72;100.00;102947.19;5112230;28;20036;-34
2021/12/20 02:21:14;;;;;;;9.68;1.80;;;;;;;6.71;100.00;102949.09;5111574;28;20060;-31
2021/12/20 02:23:42;;;;;;;9.30;2.03;;;;;;;6.70;100.00;102954.88;5109047;28;20419;-30
2021/12/20 02:26:11;;;;;;;11.50;1.92;;;;;;;6.69;100.00;102953.16;5111373;28;20036;-34
2021/12/20 02:28:43;;;;;;;12.18;2.00;;;;;;;6.70;100.00;102954.88;5112460;28;20035;-39
2021/12/20 02:37:03;;;;;;;9.15;1.45;;;;;;;6.68;100.00;102945.91;5107410;28;20043;-36
2021/12/20 02:39:31;;;;;;;7.68;1.20;;;;;;;6.68;100.00;102949.53;5111906;28;20055;-35
2021/12/20 02:41:59;;;;;;;7.78;1.20;;;;;;;6.70;100.00;102946.56;5110651;28;20040;-35
2021/12/20 02:44:28;;;;;;;4.03;0.93;;;;;;;6.70;100.00;102939.06;5111642;28;20061;-36
2021/12/20 02:47:14;;;;;;;5.03;1.10;;;;;;;6.71;100.00;102935.22;5112018;28;20054;-37
2021/12/20 02:49:43;;;;;;;5.22;1.02;;;;;;;6.69;100.00;102937.38;5110007;28;20043;-35
2021/12/20 02:52:13;;;;;;;6.72;1.13;;;;;;;6.69;100.00;102936.53;5111613;28;20047;-34
2021/12/20 02:54:40;;;;;;;7.10;1.58;;;;;;;6.68;100.00;102940.38;5110964;28;20399;-35
2021/12/20 02:57:08;;;;;;;4.68;1.17;;;;;;;6.67;100.00;102941.44;5094283;28;20051;-35
2021/12/20 02:59:36;;;;;;;10.93;1.35;;;;;;;6.67;100.00;102930.34;5111745;28;20051;-36
2021/12/20 03:02:06;;;;;;;6.93;1.48;;;;;;;6.64;100.00;102933.56;5110932;28;20075;-35
2021/12/20 03:04:35;;;;;;;9.63;1.35;;;;;;;6.63;100.00;102926.31;5111576;28;20047;-37
2021/12/20 03:07:05;;;;;;;14.13;1.42;;;;;;;6.61;100.00;102923.75;5111793;28;20055;-38
2021/12/20 03:09:38;;;;;;;16.85;2.08;;;;;;;6.59;100.00;102937.03;5110258;28;20048;-39
2021/12/20 03:12:08;;;;;;;8.32;1.23;;;;;;;6.58;100.00;102927.00;5111945;28;20052;-34
2021/12/20 03:14:40;;;;;;;5.53;1.13;;;;;;;6.59;100.00;102931.47;5111236;28;20129;-35
2021/12/20 03:17:08;;;;;;;7.40;1.27;;;;;;;6.59;100.00;102934.25;5110851;28;20467;-37
2021/12/20 03:19:36;;;;;;;7.43;0.90;;;;;;;6.59;100.00;102917.59;5111086;28;20480;-34
2021/12/20 03:22:05;;;;;;;5.32;1.08;;;;;;;6.60;100.00;102926.75;5111755;28;20142;-31
2021/12/20 03:24:35;;;;;;;5.00;0.90;;;;;;;6.59;100.00;102925.06;5110309;28;20035;-33
2021/12/20 03:27:03;;;;;;;10.55;1.73;;;;;;;6.56;100.00;102923.59;5111550;28;20055;-38
2021/12/20 03:29:31;;;;;;;7.45;1.35;;;;;;;6.57;100.00;102928.91;5110404;28;20035;-35
2021/12/20 03:31:59;;;;;;;9.80;1.63;;;;;;;6.57;100.00;102937.25;5100243;28;20382;-36
2021/12/20 03:34:27;;;;;;;3.63;0.90;;;;;;;6.56;100.00;102924.44;5110971;28;20055;-36
2021/12/20 03:36:54;;;;;;;5.00;0.80;;;;;;;6.57;100.00;102928.06;5110728;28;20112;-34
2021/12/20 03:39:22;;;;;;;5.28;1.00;;;;;;;6.58;100.00;102924.22;5111352;28;20078;-38
2021/12/20 03:41:51;;;;;;;4.47;1.30;;;;;;;6.59;100.00;102919.53;5111186;28;20051;-35
2021/12/20 03:44:19;;;;;;;4.90;1.10;;;;;;;6.59;100.00;102930.63;5110570;28;20404;-30
2021/12/20 03:46:47;;;;;;;6.82;1.00;;;;;;;6.59;100.00;102930.63;5111113;28;20050;-36
2021/12/20 03:49:15;;;;;;;7.78;1.25;;;;;;;6.59;100.00;102919.53;5111132;28;20051;-36
2021/12/20 03:51:43;;;;;;;10.32;1.40;;;;;;;6.57;100.00;102916.97;5110410;28;20048;-33
2021/12/20 03:54:10;;;;;;;6.93;1.30;;;;;;;6.55;100.00;102919.97;5113246;28;20134;-35
2021/12/20 03:56:38;;;;;;;5.13;0.95;;;;;;;6.55;100.00;102924.66;5115033;28;20039;-30
2021/12/20 03:59:08;;;;;;;6.13;1.35;;;;;;;6.54;100.00;102934.91;5114387;28;20043;-34
2021/12/20 04:01:35;;;;;;;9.32;1.52;;;;;;;6.55;100.00;102931.06;5114695;28;20347;-32
2021/12/20 04:04:03;;;;;;;10.82;2.03;;;;;;;6.53;100.00;102927.66;5114978;28;20126;-37
2021/12/20 04:06:34;;;;;;;8.90;1.70;;;;;;;6.51;100.00;102921.47;5113737;28;20481;-35
2021/12/20 04:09:01;;;;;;;8.00;1.67;;;;;;;6.50;100.00;102928.09;5115604;28;20486;-39
2021/12/20 04:11:31;;;;;;;6.43;1.27;;;;;;;6.50;100.00;102930.88;5114321;28;20484;-38
2021/12/20 04:13:59;;;;;;;5.80;1.08;;;;;;;6.50;100.00;102936.41;5114717;28;20043;-37
2021/12/20 04:16:29;;;;;;;6.40;1.05;;;;;;;6.52;100.00;102936.19;5114654;28;20047;-36
2021/12/20 04:18:58;;;;;;;6.60;1.27;;;;;;;6.53;100.00;102937.91;5114137;28;20059;-39
2021/12/20 04:21:26;;;;;;;8.13;1.48;;;;;;;6.51;100.00;102938.13;5114662;28;20098;-38
2021/12/20 04:23:54;;;;;;;8.55;1.33;;;;;;;6.52;100.00;102933.44;5114772;28;20062;-35
2021/12/20 04:26:22;;;;;;;7.13;1.58;;;;;;;6.50;100.00;102936.41;5113369;28;20043;-39
2021/12/20 04:28:49;;;;;;;7.15;1.13;;;;;;;6.48;100.00;102935.78;5114531;28;20474;-38
2021/12/20 04:31:18;;;;;;;7.72;1.00;;;;;;;6.48;100.00;102933.00;5114295;27;20055;-34
2021/12/20 04:33:47;;;;;;;8.18;1.30;;;;;;;6.46;100.00;102935.16;5113747;28;20044;-36
2021/12/20 04:36:15;;;;;;;6.70;1.40;;;;;;;6.45;100.00;102932.59;5114108;28;20040;-35
2021/12/20 04:38:43;;;;;;;8.85;1.38;;;;;;;6.43;100.00;102930.03;5114457;28;20456;-34
2021/12/20 04:41:11;;;;;;;4.45;0.80;;;;;;;6.44;100.00;102923.41;5113554;28;20063;-36
2021/12/20 04:43:39;;;;;;;7.60;1.40;;;;;;;6.44;100.00;102925.34;5114195;28;20043;-35
2021/12/20 04:46:09;;;;;;;6.63;1.27;;;;;;;6.45;100.00;102930.69;5114024;28;20117;-30
2021/12/20 04:48:36;;;;;;;5.68;0.90;;;;;;;6.46;100.00;102926.81;5099239;28;20044;-36
2021/12/20 04:51:05;;;;;;;7.90;1.45;;;;;;;6.45;100.00;102922.34;5114154;28;20051;-36
2021/12/20 04:53:33;;;;;;;7.47;1.35;;;;;;;6.45;100.00;102918.72;5113648;28;20048;-38
2021/12/20 04:56:01;;;;;;;5.63;1.02;;;;;;;6.45;100.00;102925.13;5113445;28;20236;-39
2021/12/20 04:58:29;;;;;;;7.68;1.33;;;;;;;6.45;100.00;102929.81;5113603;28;20043;-37
2021/12/20 05:00:57;;;;;;;9.77;1.10;;;;;;;6.44;100.00;102931.75;5113141;28;20139;-32
2021/12/20 05:03:25;;;;;;;6.38;1.10;;;;;;;6.44;100.00;102930.88;5112570;28;20043;-38
2021/12/20 05:05:52;;;;;;;3.97;0.82;;;;;;;6.45;100.00;102936.22;5113530;28;20142;-35
2021/12/20 05:08:22;;;;;;;7.22;1.30;;;;;;;6.45;100.00;102927.91;5112647;28;20054;-34
2021/12/20 05:10:49;;;;;;;5.82;0.88;;;;;;;6.46;100.00;102928.75;5113919;28;20051;-35
2021/12/20 05:13:17;;;;;;;6.68;1.20;;;;;;;6.47;100.00;102934.06;5113371;28;20476;-39
2021/12/20 05:15:45;;;;;;;9.95;1.15;;;;;;;6.46;100.00;102932.38;5099891;28;20142;-30
2021/12/20 05:18:13;;;;;;;6.90;1.08;;;;;;;6.46;100.00;102932.38;5108170;28;20058;-30
2021/12/20 05:20:41;;;;;;;5.97;1.30;;;;;;;6.46;100.00;102929.59;5113580;28;20460;-28
2021/12/20 05:23:09;;;;;;;8.30;1.27;;;;;;;6.47;100.00;102933.22;5112360;28;20036;-34
2021/12/20 05:25:39;;;;;;;5.00;0.90;;;;;;;6.46;100.00;102924.06;5113359;28;20061;-42
2021/12/20 05:28:08;;;;;;;7.43;1.10;;;;;;;6.46;100.00;102926.81;5113352;28;20051;-30
2021/12/20 05:30:36;;;;;;;6.90;1.20;;;;;;;6.45;100.00;102932.59;5112994;27;20043;-38
2021/12/20 05:33:04;;;;;;;7.68;1.20;;;;;;;6.42;100.00;102933.88;5112588;28;20046;-33
2021/12/20 05:35:32;;;;;;;5.60;1.05;;;;;;;6.42;100.00;102933.03;5113285;28;20052;-39
2021/12/20 05:38:00;;;;;;;7.30;1.10;;;;;;;6.42;100.00;102931.09;5112468;28;20046;-37
2021/12/20 05:40:28;;;;;;;4.78;0.93;;;;;;;6.43;100.00;102938.34;5098512;28;20423;-33
2021/12/20 05:42:57;;;;;;;8.25;1.00;;;;;;;6.44;100.00;102940.06;5113035;28;20478;-38
2021/12/20 05:45:25;;;;;;;8.40;1.25;;;;;;;6.45;100.00;102943.69;5109959;28;20044;-37
2021/12/20 05:47:53;;;;;;;3.83;1.20;;;;;;;6.45;100.00;102940.91;5112829;28;20471;-37
2021/12/20 05:50:22;;;;;;;3.95;0.75;;;;;;;6.45;100.00;102941.75;5111915;28;20075;-32
2021/12/20 05:52:50;;;;;;;5.40;0.82;;;;;;;6.45;100.00;102943.69;5112603;28;20409;-32
2021/12/20 05:55:19;;;;;;;4.03;0.80;;;;;;;6.44;100.00;102940.06;5109057;28;20058;-33
2021/12/20 05:57:47;;;;;;;10.25;0.93;;;;;;;6.45;100.00;102940.91;5111994;28;20040;-32
2021/12/20 06:00:19;;;;;;;4.20;0.80;;;;;;;6.44;100.00;102939.22;5111724;28;20048;-33
2021/12/20 06:02:49;;;;;;;2.28;0.68;;;;;;;6.43;100.00;102938.34;5112806;28;20055;-31
2021/12/20 06:05:18;;;;;;;5.72;1.15;;;;;;;6.44;100.00;102939.22;5111738;28;20047;-36
2021/12/20 06:07:46;;;;;;;3.05;0.68;;;;;;;6.43;100.00;102943.91;5111520;28;20500;-34
2021/12/20 06:10:16;;;;;;;4.07;0.77;;;;;;;6.43;100.00;102949.44;5111204;28;20052;-38
2021/12/20 06:12:44;;;;;;;8.50;1.00;;;;;;;6.43;100.00;102949.44;5111201;28;20142;-38
2021/12/20 06:15:13;;;;;;;4.10;0.60;;;;;;;6.43;100.00;102949.44;5111585;28;20489;-36
2021/12/20 06:17:43;;;;;;;5.55;0.80;;;;;;;6.43;100.00;102955.00;5111965;28;20039;-36
2021/12/20 06:20:13;;;;;;;5.72;0.70;;;;;;;6.42;100.00;102956.06;5110650;28;20143;-30
2021/12/20 06:22:42;;;;;;;2.45;0.57;;;;;;;6.42;100.00;102952.44;5112422;28;20496;-36
2021/12/20 06:25:10;;;;;;;5.78;1.10;;;;;;;6.43;100.00;102956.91;5111607;28;20055;-37
2021/12/20 06:27:39;;;;;;;5.57;0.90;;;;;;;6.42;100.00;102958.84;5112411;28;20070;-39
2021/12/20 06:30:09;;;;;;;4.35;0.65;;;;;;;6.41;100.00;102959.91;5111639;28;20054;-39
2021/12/20 06:32:37;;;;;;;4.00;0.70;;;;;;;6.41;100.00;102962.69;5107956;28;20485;-37
2021/12/20 06:35:21;;;;;;;3.58;0.57;;;;;;;6.39;100.00;102959.31;5111402;27;20081;-33
2021/12/20 06:37:59;;;;;;;3.47;0.63;;;;;;;6.41;100.00;102959.91;5111414;28;20039;-37
2021/12/20 06:40:28;;;;;;;4.22;0.77;;;;;;;6.39;100.00;102967.63;5110848;28;20051;-34
2021/12/20 06:42:56;;;;;;;5.35;0.85;;;;;;;6.37;100.00;102975.31;5108439;28;20051;-34
2021/12/20 06:45:24;;;;;;;6.32;0.90;;;;;;;6.36;100.00;102970.84;5111836;28;20069;-32
2021/12/20 06:47:52;;;;;;;6.43;0.80;;;;;;;6.36;100.00;102969.97;5108877;28;20044;-39
2021/12/20 06:50:21;;;;;;;3.70;0.70;;;;;;;6.37;100.00;102967.00;5109609;28;20047;-41
2021/12/20 06:52:49;;;;;;;4.20;0.80;;;;;;;6.33;100.00;102974.03;5110412;28;20044;-39
2021/12/20 06:55:17;;;;;;;4.45;0.80;;;;;;;6.31;100.00;102975.31;5106871;28;20047;-40
2021/12/20 06:57:45;;;;;;;3.90;0.70;;;;;;;6.30;100.00;102973.63;5110378;28;20036;-33
2021/12/20 07:00:14;;;;;;;4.40;0.93;;;;;;;6.28;100.00;102968.28;5110007;28;20039;-38
2021/12/20 07:02:42;;;;;;;2.50;0.50;;;;;;;6.27;100.00;102976.81;5109554;28;20142;-32
2021/12/20 07:05:10;;;;;;;1.90;0.40;;;;;;;6.23;100.00;102973.63;5110592;28;20400;-35
2021/12/20 07:07:40;;;;;;;3.40;0.45;;;;;;;6.23;100.00;102974.50;5107410;28;20473;-37
2021/12/20 07:10:10;;;;;;;1.63;0.40;;;;;;;6.21;100.00;102967.47;5107073;28;20761;-37
2021/12/20 07:12:39;;;;;;;1.73;0.50;;;;;;;6.19;100.00;102972.41;5109431;28;20043;-32
2021/12/20 07:15:11;;;;;;;3.80;0.63;;;;;;;6.20;100.00;102982.38;5109674;28;20054;-36
2021/12/20 07:17:40;;;;;;;2.50;0.52;;;;;;;6.19;100.00;102973.22;5106004;28;20043;-34
2021/12/20 07:20:10;;;;;;;3.65;0.55;;;;;;;6.18;100.00;102966.00;5109732;28;20052;-39
2021/12/20 07:22:39;;;;;;;3.13;0.50;;;;;;;6.19;100.00;102964.06;5109295;28;20496;-33
2021/12/20 07:25:08;;;;;;;5.22;1.02;;;;;;;6.17;100.00;102971.75;5109648;28;20065;-34
2021/12/20 07:27:36;;;;;;;2.50;0.73;;;;;;;6.16;100.00;102975.59;5111151;28;20051;-34
2021/12/20 07:30:06;;;;;;;4.82;0.98;;;;;;;6.15;100.00;102969.19;5112985;28;20051;-38
2021/12/20 07:32:34;;;;;;;2.60;0.55;;;;;;;6.15;100.00;102968.34;5114188;28;20050;-37
2021/12/20 07:35:02;;;;;;;3.47;0.90;;;;;;;6.13;100.00;102971.34;5114049;28;20043;-39
2021/12/20 07:37:30;;;;;;;3.67;0.80;;;;;;;6.12;100.00;102988.19;5112783;28;20874;-36
2021/12/20 07:39:59;;;;;;;3.97;0.60;;;;;;;6.08;100.00;102978.59;5113155;28;20058;-36
2021/12/20 07:42:27;;;;;;;1.90;0.63;;;;;;;6.06;100.00;102975.19;5113347;28;20090;-35
2021/12/20 07:44:58;;;;;;;2.50;0.45;;;;;;;6.03;100.00;102976.47;5110023;28;20032;-34
2021/12/20 07:47:45;;;;;;;6.20;0.57;;;;;;;6.00;100.00;102978.81;5113237;28;20050;-39
2021/12/20 07:50:13;;;;;;;4.97;0.70;;;;;;;5.98;100.00;102979.06;5112429;28;20487;-32
2021/12/20 07:52:40;;;;;;;2.47;0.60;;;;;;;5.97;100.00;102982.06;5112545;28;20080;-37
2021/12/20 07:55:10;;;;;;;3.03;0.70;;;;;;;5.97;100.00;102984.81;5111621;28;20051;-31
2021/12/20 07:57:38;;;;;;;1.98;0.43;;;;;;;5.96;100.00;102986.75;5111774;28;20043;-34
2021/12/20 08:00:08;;;;;;;2.10;0.52;;;;;;;5.95;100.00;102985.03;5113072;28;20436;-38
2021/12/20 08:02:40;;;;;;;3.55;0.60;;;;;;;5.95;100.00;102989.72;5113796;28;20469;-32
2021/12/20 08:05:09;;;;;;;3.28;0.80;;;;;;;5.94;100.00;102986.09;5111860;28;20062;-36
2021/12/20 08:07:37;;;;;;;2.38;0.60;;;;;;;5.93;100.00;102981.63;5109034;28;20488;-31
2021/12/20 08:10:06;;;;;;;2.33;0.63;;;;;;;5.92;100.00;102985.47;5112612;28;20130;-33
2021/12/20 08:12:35;;;;;;;1.52;0.50;;;;;;;5.92;100.00;102976.28;5112592;28;20134;-30
2021/12/20 08:15:03;;;;;;;1.90;0.60;;;;;;;5.92;100.00;102979.91;5113022;28;20526;-34
2021/12/20 08:17:31;;;;;;;2.58;0.60;;;;;;;5.92;100.00;102985.47;5113113;27;20051;-35
2021/12/20 08:20:00;;;;;;;1.88;0.45;;;;;;;5.92;100.00;102990.16;5112142;28;20093;-38
2021/12/20 08:22:28;;;;;;;3.45;0.60;;;;;;;5.94;100.00;102988.03;5113298;28;20057;-36
2021/12/20 08:24:56;;;;;;;4.07;0.80;;;;;;;5.94;100.00;102997.19;5112258;28;20054;-37
2021/12/20 08:27:24;;;;;;;1.98;0.50;;;;;;;5.95;100.00;103000.81;5113488;28;20039;-38
2021/12/20 08:29:53;;;;;;;4.22;0.70;;;;;;;5.95;100.00;102996.13;5112627;28;20044;-37
2021/12/20 08:32:21;;;;;;;3.35;0.73;;;;;;;5.94;100.00;102997.19;5112454;28;20408;-33
2021/12/20 08:34:53;;;;;;;2.60;0.77;;;;;;;5.95;100.00;102998.03;5112709;28;20035;-34
2021/12/20 08:37:21;;;;;;;5.30;0.90;;;;;;;5.94;100.00;103001.88;5112799;28;20507;-37
2021/12/20 08:39:49;;;;;;;4.65;0.75;;;;;;;5.95;100.00;103009.13;5111114;28;20069;-37
2021/12/20 08:42:17;;;;;;;5.72;1.02;;;;;;;5.96;100.00;103008.06;5112907;27;20218;-34
2021/12/20 08:44:45;;;;;;;4.07;0.80;;;;;;;5.96;100.00;103005.28;5112293;28;20083;-33
2021/12/20 08:47:15;;;;;;;4.32;1.08;;;;;;;5.95;100.00;103009.13;5111263;28;20344;-37
2021/12/20 08:49:43;;;;;;;2.63;0.52;;;;;;;5.95;100.00;103011.88;5111851;28;20146;-39
2021/12/20 08:52:12;;;;;;;7.20;1.02;;;;;;;5.94;100.00;103013.81;5111793;28;20048;-38
2021/12/20 08:54:40;;;;;;;8.07;1.00;;;;;;;5.95;100.00;103022.97;5111148;28;20060;-36
2021/12/20 08:57:08;;;;;;;3.40;0.70;;;;;;;5.95;100.00;103020.22;5111227;27;20054;-37
2021/12/20 08:59:36;;;;;;;5.45;1.02;;;;;;;5.96;100.00;103019.13;5110264;28;20051;-35
2021/12/20 09:02:07;;;;;;;6.03;0.93;;;;;;;5.94;100.00;103022.13;5110925;28;20428;-37
2021/12/20 09:04:37;;;;;;;5.53;1.23;;;;;;;5.94;100.00;103016.59;5111642;28;20096;-35
2021/12/20 09:07:07;;;;;;;5.05;1.13;;;;;;;5.95;100.00;103014.66;5105004;28;20048;-39
2021/12/20 09:09:38;;;;;;;2.40;0.50;;;;;;;5.97;100.00;103016.16;5095062;28;20488;-37
2021/12/20 09:12:08;;;;;;;4.63;0.65;;;;;;;6.00;100.00;103020.38;5112349;28;20141;-34
2021/12/20 09:14:36;;;;;;;3.63;0.68;;;;;;;6.03;100.00;103023.59;5112575;28;20047;-34
2021/12/20 09:17:04;;;;;;;4.10;0.70;;;;;;;6.06;100.00;103017.63;5113044;28;20377;-36
2021/12/20 09:19:34;;;;;;;1.88;0.50;;;;;;;6.09;100.00;103019.97;5113294;28;20058;-34
2021/12/20 09:22:05;;;;;;;3.10;0.60;;;;;;;6.16;100.00;103019.94;5111166;28;20071;-32
2021/12/20 09:24:34;;;;;;;2.53;0.50;;;;;;;6.20;100.00;103021.19;5113032;28;20116;-37
2021/12/20 09:27:03;;;;;;;2.55;0.60;;;;;;;6.23;100.00;103024.38;5111137;28;20052;-33
2021/12/20 09:29:33;;;;;;;2.28;0.60;;;;;;;6.27;100.00;103021.19;5111005;28;20047;-33
2021/12/20 09:32:02;;;;;;;1.50;0.40;;;;;;;6.30;100.00;103015.22;5112933;28;20051;-35
2021/12/20 09:34:30;;;;;;;2.67;0.60;;;;;;;6.33;100.00;103021.19;5112639;28;20048;-32
2021/12/20 09:37:03;;;;;;;4.20;0.70;;;;;;;6.35;100.00;103026.50;5111088;28;20035;-34
2021/12/20 09:39:34;;;;;;;2.88;0.57;;;;;;;6.34;100.00;103025.66;5113038;28;20130;-38
2021/12/20 09:42:02;;;;;;;3.30;0.60;;;;;;;6.35;100.00;103026.50;5112524;28;20488;-34
2021/12/20 09:44:32;;;;;;;2.72;0.68;;;;;;;6.39;100.00;103028.63;5111954;28;20056;-37
2021/12/20 09:47:02;;;;;;;7.22;1.20;;;;;;;6.40;100.00;103026.69;5112398;28;20031;-34
2021/12/20 09:49:31;;;;;;;6.05;1.20;;;;;;;6.39;100.00;103036.09;5111824;28;20098;-30
2021/12/20 09:52:00;;;;;;;4.50;0.98;;;;;;;6.36;100.00;103037.38;5112459;28;20081;-37
2021/12/20 09:54:29;;;;;;;6.82;1.27;;;;;;;6.37;100.00;103038.25;5112152;28;20398;-36
2021/12/20 09:57:02;;;;;;;3.22;0.80;;;;;;;6.37;100.00;103032.69;5111676;28;20031;-31
2021/12/20 09:59:31;;;;;;;10.63;1.52;;;;;;;6.36;100.00;103031.84;5109583;28;20036;-32
2021/12/20 10:01:59;;;;;;;3.90;0.82;;;;;;;6.38;100.00;103028.84;5112285;28;20586;-36
2021/12/20 10:04:27;;;;;;;4.40;0.90;;;;;;;6.42;100.00;103041.19;5111665;28;20047;-37
2021/12/20 10:06:58;;;;;;;4.55;1.05;;;;;;;6.42;100.00;103039.25;5111969;28;20036;-32
2021/12/20 10:09:29;;;;;;;4.43;0.98;;;;;;;6.45;100.00;103038.84;5112459;28;20416;-33
2021/12/20 10:12:17;;;;;;;5.10;0.90;;;;;;;6.49;100.00;103042.03;5111665;28;20043;-37
2021/12/20 10:15:07;;;;;;;3.50;1.08;;;;;;;6.50;100.00;103047.34;5112230;28;20501;-33
2021/12/20 10:17:51;;;;;;;5.07;0.75;;;;;;;6.52;100.00;103049.91;5108720;28;20580;-39
2021/12/20 10:20:22;;;;;;;7.32;1.05;;;;;;;6.53;100.00;103052.47;5109789;28;20438;-36
2021/12/20 10:22:50;;;;;;;8.02;1.15;;;;;;;6.56;100.00;103043.72;5111785;28;20461;-38
2021/12/20 10:25:27;;;;;;;5.18;0.98;;;;;;;6.61;100.00;103042.19;5106409;28;20130;-36
2021/12/20 10:28:08;;;;;;;3.63;1.05;;;;;;;6.65;100.00;103049.00;5111827;28;20502;-32
2021/12/20 10:30:38;;;;;;;3.90;0.77;;;;;;;6.69;100.00;103048.34;5109148;28;20051;-32
2021/12/20 10:33:10;;;;;;;4.25;1.13;;;;;;;6.75;100.00;103041.06;5110879;28;20151;-35
2021/12/20 10:35:41;;;;;;;4.65;0.90;;;;;;;6.80;100.00;103047.66;5111789;28;20515;-39
2021/12/20 10:38:23;;;;;;;8.07;1.00;;;;;;;6.88;100.00;103041.00;5111875;28;20043;-39
2021/12/20 10:40:53;;;;;;;6.63;1.27;;;;;;;6.93;100.00;103037.56;5108487;28;20035;-34
2021/12/20 10:43:24;;;;;;;7.63;1.20;;;;;;;7.00;100.00;103038.38;5111795;28;20040;-35
2021/12/20 10:45:54;;;;;;;8.73;1.05;;;;;;;7.07;100.00;103041.97;5111541;28;20060;-37
2021/12/20 10:48:42;;;;;;;7.70;1.08;;;;;;;7.11;100.00;103035.75;5111924;28;20547;-36
2021/12/20 10:51:19;;;;;;;7.90;1.17;;;;;;;7.15;100.00;103042.56;5107390;28;20040;-35
2021/12/20 10:53:48;;;;;;;5.72;0.90;;;;;;;7.17;100.00;103042.34;5110663;28;20093;-39
2021/12/20 10:56:19;;;;;;;3.83;1.35;;;;;;;7.21;100.00;103041.66;5111603;28;20054;-34
2021/12/20 10:58:55;;;;;;;4.80;0.80;;;;;;;7.29;100.00;103045.25;5112106;28;20054;-34
2021/12/20 11:01:51;;;;;;;6.53;1.00;;;;;;;7.36;99.60;103037.72;5110028;28;20043;-40
2021/12/20 11:04:23;;;;;;;5.55;0.90;;;;;;;7.36;98.67;103038.59;5111054;28;20131;-35
2021/12/20 11:09:04;;;;;;;4.77;0.60;;;;;;;7.38;97.52;103036.44;5111243;28;20054;-38
2021/12/20 11:09:50;;;;;;;4.60;1.17;;;;;;;7.42;97.73;103028.47;5111382;28;20447;-32
2021/12/20 11:12:22;;;;;;;3.05;0.65;;;;;;;7.45;95.69;103023.31;5111698;28;20052;-40
2021/12/20 11:14:54;;;;;;;4.85;1.05;;;;;;;7.46;95.81;103032.50;5110335;28;20506;-40
2021/12/20 11:17:23;;;;;;;5.83;1.13;;;;;;;7.46;94.89;103030.59;5111418;28;20040;-33
2021/12/20 11:19:53;;;;;;;3.67;1.00;;;;;;;7.46;94.41;103026.97;5111037;28;20035;-36
2021/12/20 11:22:24;;;;;;;3.33;0.85;;;;;;;7.46;93.62;103024.19;5110819;28;20083;-35
2021/12/20 11:24:54;;;;;;;3.70;0.90;;;;;;;7.47;93.98;103034.22;5104919;28;20072;-40
2021/12/20 11:27:24;;;;;;;5.05;1.00;;;;;;;7.47;94.17;103028.66;5111204;28;20047;-37
2021/12/20 11:29:56;;;;;;;9.07;1.10;;;;;;;7.46;93.27;103024.19;5110513;28;20097;-33
2021/12/20 11:32:26;;;;;;;3.15;0.63;;;;;;;7.39;91.24;103026.19;5110288;28;20047;-38
2021/12/20 11:34:55;;;;;;;5.85;0.93;;;;;;;7.31;90.31;103024.50;5110128;28;20047;-35
2021/12/20 11:37:24;;;;;;;5.25;0.90;;;;;;;7.24;90.38;103030.09;5111071;28;20460;-34
2021/12/20 11:39:53;;;;;;;6.82;1.25;;;;;;;7.22;90.90;103025.84;5110904;28;20046;-33
2021/12/20 11:42:21;;;;;;;5.43;1.10;;;;;;;7.18;89.31;103027.38;5109914;28;20637;-33
2021/12/20 11:44:56;;;;;;;4.65;0.75;;;;;;;7.15;89.52;103033.38;5111237;28;20043;-42
2021/12/20 11:47:30;;;;;;;4.40;0.80;;;;;;;7.12;90.09;103034.69;5101987;28;20101;-34
2021/12/20 11:50:00;;;;;;;3.08;1.17;;;;;;;7.15;91.80;103034.25;5094008;28;20085;-39